KNGP/NGP METAR and TAF weather

Enter ICAO airport designator
Station Type Date Time Source
KNGP METAR 2022/11/30 15:56 UTC NOAA

KNGP 301556Z 01021G29KT 10SM FEW024 FEW035 BKN300 16/06 A3023 RMK AO2 PK WND 02032/1506 SLP235 T01560061


Station Type Date Time Source
KNGP Decoded METAR 2022/11/30 15:56 UTC NOAA

CORPUS CHRISTI NAVAL AIR STN, TX, United States (KNGP) 27-41N 097-17W
Nov 30, 2022 - 10:56 AM EST / 2022.11.30 1556 UTC
Wind: from the N (010 degrees) at 24 MPH (21 KT) gusting to 33 MPH (29 KT):0
Visibility: 10 mile(s):0
Sky conditions: mostly cloudy
Temperature: 60.1 F (15.6 C)
Dew Point: 43.0 F (6.1 C)
Relative Humidity: 53%
Pressure (altimeter): 30.23 in. Hg (1023 hPa)
ob: KNGP 301556Z 01021G29KT 10SM FEW024 FEW035 BKN300 16/06 A3023 RMK AO2 PK WND 02032/1506 SLP235 T01560061
cycle: 16

Station Type Date Time Source
KNGP TAF 2022/11/30 15:52 UTC NOAA

TAF KNGP 3015/0115 02024G32KT 9999 SCT025 BKN035 510004 QNH3017INS
TEMPO 3015/3017 BKN025 BKN035
FM301700 03020G30KT 9999 FEW025 SCT035 510004 QNH3020INS
FM302100 04018G26KT 9999 FEW020 SCT035 510004 QNH3020INS
TEMPO 3021/0100 FEW020 BKN035
FM010000 04016G24KT 9999 SCT020 SCT035 500000 QNH3023INS
TEMPO 0100/0106 04018G26KT SCT020 BKN035
FM010600 03012KT 9999 BKN020 OVC035 QNH3027INS
FM011000 02014G20KT 9999 BKN015 OVC025 QNH3028INS
TEMPO 0110/0115 9000 -RA BR OVC012 T17/3021Z T13/0112Z FN20044

Example: see airport list